Pleasant Grove, Minnesota
Current Conditions -  °F | °C
As of 4:12 AM on Thursday 29 Jan 2015 (Local Time) from KRST Reporting Station
Freezing Rain Freezing Rain  
Wind Chill: 18°   Ceiling: 400
Heat Index: 31°   Visibility: 2mi
Dew Point: 29°   Wind: 21mph
Humidity: 92%   Direction: 330°NNW
Pressure: 29.89"   Gusts: NA
Location:  43.8884°N, 92.383°W
Report Text: KRST 291012Z 33018KT 2SM -FZRA BR OVC004 M01/M02 A2989 RMK AO2 P0000 I1000 T10061017
Loading
Personal Weather Stations






























Interactive Weather Map New forecast layout! Learn more

10-Day Weather Forecast

Advertisements
Track Severe Weather on mobile